Stillwater, Oklahoma
Current Conditions -  °F | °C
As of 9:53 AM on Thursday 29 Jan 2015 (Local Time) from KSWO Reporting Station
Few Clouds Few Clouds  
Wind Chill: 42°   Ceiling: Unl
Heat Index: 48°   Visibility: 10mi
Dew Point: 32°   Wind: 16mph
Humidity: 54%   Direction: 340°NNW
Pressure: 30.41"   Gusts: 24mph
Location:  36.12°N, 97.06°W
Report Text: KSWO 291553Z 34014G21KT 10SM FEW031 09/00 A3041 RMK AO2 PK WND 34027/1508 SLP295 T00890000
Loading
Personal Weather Stations






























Interactive Weather Map New forecast layout! Learn more

10-Day Weather Forecast

Advertisements
Track Severe Weather on mobile